createdAt,value
2023-12-07T00:01:31.463Z,3.30
2023-12-07T00:04:04.388Z,3.60
2023-12-07T00:06:33.955Z,3.88
2023-12-07T00:09:03.139Z,3.35
2023-12-07T00:11:29.587Z,3.73
2023-12-07T00:13:56.009Z,3.42
2023-12-07T00:16:22.450Z,3.55
2023-12-07T00:18:49.297Z,3.00
2023-12-07T00:21:18.192Z,3.58
2023-12-07T00:23:44.727Z,3.30
2023-12-07T00:26:15.052Z,3.45
2023-12-07T00:28:44.823Z,3.35
2023-12-07T00:33:53.149Z,3.08
2023-12-07T00:36:21.723Z,3.73
2023-12-07T00:38:52.280Z,3.95
2023-12-07T00:41:24.510Z,3.90
2023-12-07T00:43:51.043Z,3.60
2023-12-07T00:46:17.489Z,3.45
2023-12-07T00:48:49.389Z,3.83
2023-12-07T00:51:16.509Z,3.55
2023-12-07T00:53:42.949Z,4.55
2023-12-07T00:56:12.862Z,4.15
2023-12-07T00:58:39.827Z,4.45
2023-12-07T01:01:09.104Z,4.13
2023-12-07T01:03:41.931Z,4.85
2023-12-07T01:06:09.078Z,4.07
2023-12-07T01:08:44.957Z,3.80
2023-12-07T01:11:11.400Z,3.78
2023-12-07T01:16:22.913Z,4.00
2023-12-07T01:18:52.479Z,4.10
2023-12-07T01:24:13.350Z,3.92
2023-12-07T01:26:53.026Z,4.20
2023-12-07T01:29:20.026Z,3.45
2023-12-07T01:31:52.288Z,3.72
2023-12-07T01:34:23.164Z,3.92
2023-12-07T01:36:52.132Z,3.55
2023-12-07T01:39:22.371Z,3.43
2023-12-07T01:44:29.702Z,4.03
2023-12-07T01:46:59.552Z,3.70
2023-12-07T01:49:26.094Z,4.03
2023-12-07T01:51:52.969Z,3.90
2023-12-07T01:54:23.906Z,3.88
2023-12-07T01:56:52.101Z,4.45
2023-12-07T01:59:21.378Z,3.67
2023-12-07T02:01:47.928Z,3.70
2023-12-07T02:04:19.071Z,3.07
2023-12-07T02:06:49.000Z,3.60
2023-12-07T02:09:18.398Z,3.83
2023-12-07T02:11:45.155Z,3.75
2023-12-07T02:14:22.115Z,4.07
2023-12-07T02:17:00.586Z,3.30
2023-12-07T02:20:00.736Z,3.72
2023-12-07T02:22:38.171Z,3.53
2023-12-07T02:25:10.342Z,3.10
2023-12-07T02:27:39.807Z,3.65
2023-12-07T02:30:12.077Z,3.83
2023-12-07T02:32:48.930Z,3.92
2023-12-07T02:35:18.961Z,3.67
2023-12-07T02:37:55.725Z,3.97
2023-12-07T02:40:26.564Z,4.07
2023-12-07T02:42:58.056Z,3.83
2023-12-07T02:45:27.322Z,3.55
2023-12-07T02:47:58.564Z,3.53
2023-12-07T02:50:30.831Z,3.35
2023-12-07T02:53:00.491Z,3.60
2023-12-07T02:55:27.222Z,3.57
2023-12-07T02:57:56.504Z,3.75
2023-12-07T03:00:23.059Z,3.38
2023-12-07T03:02:51.708Z,3.65
2023-12-07T03:05:23.962Z,4.07
2023-12-07T03:07:50.391Z,4.23
2023-12-07T03:13:04.949Z,3.53
2023-12-07T03:15:31.388Z,3.53
2023-12-07T03:17:57.894Z,4.07
2023-12-07T03:20:33.774Z,3.83
2023-12-07T03:23:00.362Z,3.92
2023-12-07T03:25:31.639Z,3.85
2023-12-07T03:27:58.091Z,4.68
2023-12-07T03:30:24.537Z,3.85
2023-12-07T03:32:51.105Z,3.67
2023-12-07T03:35:21.497Z,3.67
2023-12-07T03:37:47.942Z,3.50
2023-12-07T03:40:17.648Z,3.75
2023-12-07T03:42:51.830Z,4.13
2023-12-07T03:45:26.872Z,3.70
2023-12-07T03:47:53.444Z,3.38
2023-12-07T03:50:29.106Z,3.67
2023-12-07T03:52:55.608Z,3.25
2023-12-07T03:55:27.393Z,3.47
2023-12-07T03:57:57.460Z,3.20
2023-12-07T04:00:28.432Z,3.92
2023-12-07T04:02:57.910Z,3.83
2023-12-07T04:05:26.259Z,3.83
2023-12-07T04:07:52.765Z,3.80
2023-12-07T04:10:19.262Z,4.43
2023-12-07T04:12:45.711Z,4.80
2023-12-07T04:15:18.507Z,4.93
2023-12-07T04:17:47.977Z,4.88
2023-12-07T04:20:20.383Z,5.35
2023-12-07T04:22:50.646Z,4.53
2023-12-07T04:25:25.974Z,5.07
2023-12-07T04:27:52.396Z,4.78
2023-12-07T04:30:22.278Z,5.20
2023-12-07T04:32:51.531Z,5.22
2023-12-07T04:35:18.036Z,5.20
2023-12-07T04:37:46.857Z,5.93
2023-12-07T04:40:16.784Z,5.28
2023-12-07T04:42:43.431Z,5.53
2023-12-07T04:45:13.182Z,5.35
2023-12-07T04:47:39.784Z,5.23
2023-12-07T04:50:06.660Z,5.25
2023-12-07T04:52:42.246Z,4.90
2023-12-07T04:55:16.756Z,5.07
2023-12-07T04:57:44.493Z,5.07
2023-12-07T05:00:11.320Z,5.30
2023-12-07T05:02:46.858Z,4.63
2023-12-07T05:05:13.518Z,4.18
2023-12-07T05:07:42.740Z,4.28
2023-12-07T05:10:12.394Z,4.15
2023-12-07T05:12:46.468Z,4.20
2023-12-07T05:15:15.626Z,4.25
2023-12-07T05:20:27.995Z,3.65
2023-12-07T05:22:57.672Z,4.40
2023-12-07T05:25:24.219Z,4.00
2023-12-07T05:27:53.821Z,4.70
2023-12-07T05:30:23.228Z,4.35
2023-12-07T05:32:54.112Z,4.50
2023-12-07T05:35:24.629Z,4.50
2023-12-07T05:37:53.563Z,4.73
2023-12-07T05:40:26.227Z,4.68
2023-12-07T05:42:52.720Z,4.80
2023-12-07T05:48:04.894Z,4.45
2023-12-07T05:50:34.519Z,5.13
2023-12-07T05:55:49.952Z,4.90
2023-12-07T05:58:16.683Z,4.47
2023-12-07T06:00:44.901Z,4.20
2023-12-07T06:03:17.195Z,5.00
2023-12-07T06:05:48.701Z,5.15
2023-12-07T06:08:15.100Z,4.28
2023-12-07T06:10:44.768Z,4.32
2023-12-07T06:13:16.942Z,5.03
2023-12-07T06:15:46.548Z,5.50
2023-12-07T06:18:13.138Z,5.40
2023-12-07T06:20:42.779Z,4.68
2023-12-07T06:23:13.690Z,5.38
2023-12-07T06:25:53.573Z,5.75
2023-12-07T06:28:38.755Z,5.53
2023-12-07T06:31:11.660Z,6.20
2023-12-07T06:33:38.187Z,5.80
2023-12-07T06:36:06.140Z,5.10
2023-12-07T06:38:32.696Z,6.28
2023-12-07T06:41:03.170Z,5.60
2023-12-07T06:43:33.958Z,5.72
2023-12-07T06:46:03.635Z,5.82
2023-12-07T06:48:36.638Z,5.57
2023-12-07T06:51:06.353Z,7.00
2023-12-07T06:53:38.629Z,6.13
2023-12-07T06:56:06.509Z,5.40
2023-12-07T06:58:33.089Z,5.32
2023-12-07T07:01:02.349Z,5.65
2023-12-07T07:03:31.818Z,6.57
2023-12-07T07:06:02.755Z,6.07
2023-12-07T07:08:33.217Z,6.47
2023-12-07T07:10:59.707Z,6.97
2023-12-07T07:13:34.331Z,6.82
2023-12-07T07:16:00.795Z,6.47
2023-12-07T07:21:15.658Z,5.75
2023-12-07T07:23:45.875Z,6.32
2023-12-07T07:26:17.840Z,6.45
2023-12-07T07:28:44.777Z,5.85
2023-12-07T07:31:14.769Z,6.17
2023-12-07T07:33:41.362Z,6.03
2023-12-07T07:36:08.339Z,5.55
2023-12-07T07:38:34.847Z,6.03
2023-12-07T07:41:04.597Z,5.72
2023-12-07T07:43:31.122Z,5.73
2023-12-07T07:45:57.583Z,5.95
2023-12-07T07:48:29.405Z,6.43
2023-12-07T07:50:55.985Z,5.53
2023-12-07T07:53:22.466Z,5.88
2023-12-07T07:55:51.854Z,5.80
2023-12-07T07:58:21.526Z,5.03
2023-12-07T08:00:52.326Z,5.85
2023-12-07T08:03:22.139Z,5.18
2023-12-07T08:05:48.805Z,5.63
2023-12-07T08:08:19.936Z,6.27
2023-12-07T08:10:54.525Z,5.30
2023-12-07T08:13:26.108Z,5.07
2023-12-07T08:15:55.953Z,5.55
2023-12-07T08:18:24.898Z,5.75
2023-12-07T08:20:51.332Z,4.90
2023-12-07T08:23:17.792Z,6.28
2023-12-07T08:25:47.454Z,5.30
2023-12-07T08:28:17.110Z,5.60
2023-12-07T08:30:50.967Z,6.82
2023-12-07T08:33:17.534Z,6.07
2023-12-07T08:35:43.966Z,5.88
2023-12-07T08:40:56.906Z,6.00
2023-12-07T08:43:24.125Z,6.32
2023-12-07T08:48:42.649Z,5.20
2023-12-07T08:51:11.504Z,5.90
2023-12-07T08:53:41.587Z,5.93
2023-12-07T08:56:11.571Z,6.60
2023-12-07T08:58:45.458Z,6.57
2023-12-07T09:01:25.484Z,5.65
2023-12-07T09:03:57.322Z,6.57
2023-12-07T09:06:26.941Z,6.82
2023-12-07T09:08:57.128Z,7.03
2023-12-07T09:11:24.082Z,6.73
2023-12-07T09:13:59.871Z,6.35
2023-12-07T09:16:27.300Z,6.15
2023-12-07T09:18:57.049Z,6.28
2023-12-07T09:21:23.473Z,6.10
2023-12-07T09:23:49.848Z,7.03
2023-12-07T09:26:20.811Z,8.23
2023-12-07T09:28:47.771Z,6.95
2023-12-07T09:31:14.481Z,6.35
2023-12-07T09:33:44.210Z,6.28
2023-12-07T09:36:12.496Z,6.00
2023-12-07T09:38:41.317Z,6.00
2023-12-07T09:41:07.786Z,7.00
2023-12-07T09:43:34.220Z,6.03
2023-12-07T09:46:01.178Z,6.65
2023-12-07T09:48:27.724Z,5.90
2023-12-07T09:51:00.243Z,5.78
2023-12-07T09:56:16.089Z,4.88
2023-12-07T09:58:43.421Z,5.10
2023-12-07T10:01:10.391Z,4.57
2023-12-07T10:03:37.222Z,4.22
2023-12-07T10:06:07.230Z,4.05
2023-12-07T10:08:40.986Z,4.18
2023-12-07T10:11:13.040Z,4.25
2023-12-07T10:13:43.205Z,4.13
2023-12-07T10:16:16.356Z,3.70
2023-12-07T10:18:46.125Z,4.30
2023-12-07T10:21:16.017Z,3.13
2023-12-07T10:23:57.564Z,3.53
2023-12-07T10:26:24.412Z,3.87
2023-12-07T10:28:58.756Z,3.70
2023-12-07T10:31:25.652Z,3.65
2023-12-07T10:34:01.685Z,3.63
2023-12-07T10:36:28.534Z,2.80
2023-12-07T10:38:58.249Z,3.73
2023-12-07T10:41:25.938Z,3.42
2023-12-07T10:44:01.501Z,3.40
2023-12-07T10:46:28.514Z,2.85
2023-12-07T10:49:02.951Z,3.20
2023-12-07T10:51:29.532Z,3.43
2023-12-07T10:53:57.775Z,3.75
2023-12-07T10:56:47.693Z,3.40
2023-12-07T10:59:23.628Z,3.45
2023-12-07T11:02:01.236Z,3.40
2023-12-07T11:04:38.167Z,3.23
2023-12-07T11:07:13.267Z,3.40
2023-12-07T11:09:53.784Z,3.17
2023-12-07T11:12:35.381Z,3.20
2023-12-07T11:15:06.321Z,3.78
2023-12-07T11:17:56.937Z,3.47
2023-12-07T11:20:59.815Z,3.75
2023-12-07T11:23:29.965Z,3.35
2023-12-07T11:25:57.459Z,3.60
2023-12-07T11:31:30.032Z,3.83
2023-12-07T11:33:56.578Z,3.63
2023-12-07T11:36:29.505Z,3.53
2023-12-07T11:39:04.191Z,3.25
2023-12-07T11:41:41.224Z,4.35
2023-12-07T11:44:16.465Z,4.17
2023-12-07T11:46:42.933Z,3.35
2023-12-07T11:49:21.122Z,3.95
2023-12-07T11:51:55.227Z,4.28
2023-12-07T11:54:24.623Z,4.57
2023-12-07T11:56:59.429Z,4.77
2023-12-07T11:59:33.911Z,5.00
2023-12-07T12:02:07.348Z,4.88
2023-12-07T12:04:33.945Z,4.75
2023-12-07T12:07:10.096Z,5.22
2023-12-07T12:09:36.626Z,4.63
2023-12-07T12:12:07.269Z,6.32
2023-12-07T12:14:33.976Z,6.00
2023-12-07T12:17:00.430Z,6.00
2023-12-07T12:19:33.409Z,6.00
2023-12-07T12:22:05.984Z,6.37
2023-12-07T12:24:40.889Z,6.32
2023-12-07T12:27:20.704Z,5.07
2023-12-07T12:29:55.188Z,6.05
2023-12-07T12:32:24.459Z,6.05
2023-12-07T12:34:56.817Z,6.30
2023-12-07T12:37:26.676Z,6.50
2023-12-07T12:39:53.416Z,5.72
2023-12-07T12:42:29.756Z,6.53
2023-12-07T12:44:56.236Z,6.65
2023-12-07T12:47:26.556Z,7.07
2023-12-07T12:49:53.430Z,7.05
2023-12-07T12:52:28.159Z,7.18
2023-12-07T12:54:58.373Z,6.68
2023-12-07T12:57:31.160Z,7.53
2023-12-07T13:00:01.716Z,7.03
2023-12-07T13:02:31.205Z,7.55
2023-12-07T13:05:00.991Z,7.70
2023-12-07T13:07:28.006Z,8.02
2023-12-07T13:09:55.646Z,7.95
2023-12-07T13:12:28.867Z,9.73
2023-12-07T13:15:01.176Z,9.68
2023-12-07T13:17:27.966Z,10.02
2023-12-07T13:19:55.812Z,9.43
2023-12-07T13:22:24.690Z,9.80
2023-12-07T13:24:51.401Z,8.77
2023-12-07T13:27:19.000Z,8.23
2023-12-07T13:29:47.806Z,7.60
2023-12-07T13:32:17.102Z,8.05
2023-12-07T13:34:44.173Z,8.07
2023-12-07T13:37:13.343Z,8.40
2023-12-07T13:39:39.798Z,9.02
2023-12-07T13:42:08.475Z,9.45
2023-12-07T13:44:40.738Z,7.95
2023-12-07T13:47:07.196Z,9.65
2023-12-07T13:49:36.591Z,8.57
2023-12-07T13:52:08.451Z,9.30
2023-12-07T13:54:51.170Z,8.20
2023-12-07T13:57:21.941Z,8.30
2023-12-07T13:59:52.618Z,9.77
2023-12-07T14:02:20.416Z,9.23
2023-12-07T14:04:52.540Z,9.43
2023-12-07T14:07:25.582Z,8.95
2023-12-07T14:09:58.584Z,9.20
2023-12-07T14:12:30.513Z,9.75
2023-12-07T14:15:00.121Z,10.30
2023-12-07T14:17:35.144Z,8.90
2023-12-07T14:23:13.296Z,10.38
2023-12-07T14:25:47.612Z,10.88
2023-12-07T14:28:18.627Z,9.60
2023-12-07T14:30:48.372Z,9.70
2023-12-07T14:33:22.251Z,10.57
2023-12-07T14:35:49.844Z,11.32
2023-12-07T14:38:16.587Z,9.73
2023-12-07T14:40:45.381Z,10.37
2023-12-07T14:43:14.996Z,10.38
2023-12-07T14:48:23.086Z,9.63
2023-12-07T14:50:57.341Z,9.52
2023-12-07T14:53:25.042Z,9.53
2023-12-07T14:55:53.212Z,10.07
2023-12-07T14:58:22.683Z,9.68
2023-12-07T15:00:55.924Z,8.75
2023-12-07T15:03:25.412Z,10.13
2023-12-07T15:05:57.986Z,10.17
2023-12-07T15:08:27.245Z,9.95
2023-12-07T15:10:57.929Z,11.02
2023-12-07T15:13:31.973Z,10.18
2023-12-07T15:15:58.862Z,10.50
2023-12-07T15:18:26.308Z,10.33
2023-12-07T15:20:52.859Z,10.48
2023-12-07T15:23:19.380Z,10.38
2023-12-07T15:25:49.930Z,10.75
2023-12-07T15:28:16.299Z,10.75
2023-12-07T15:30:42.707Z,10.93
2023-12-07T15:33:13.622Z,12.10
2023-12-07T15:35:43.503Z,12.35
2023-12-07T15:38:14.288Z,12.55
2023-12-07T15:40:44.345Z,13.32
2023-12-07T15:43:10.969Z,13.33
2023-12-07T15:45:40.493Z,13.30
2023-12-07T15:48:07.185Z,14.30
2023-12-07T15:50:33.788Z,13.25
2023-12-07T15:53:04.875Z,14.40
2023-12-07T15:55:31.298Z,13.73
2023-12-07T15:57:58.552Z,12.90
2023-12-07T16:00:28.354Z,14.50
2023-12-07T16:02:56.190Z,14.25
2023-12-07T16:05:34.463Z,12.80
2023-12-07T16:08:01.071Z,15.40
2023-12-07T16:10:33.542Z,15.18
2023-12-07T16:13:00.166Z,13.73
2023-12-07T16:15:26.713Z,14.85
2023-12-07T16:18:02.282Z,14.82
2023-12-07T16:20:28.891Z,14.33
2023-12-07T16:22:57.765Z,13.95
2023-12-07T16:25:27.379Z,14.02
2023-12-07T16:27:53.871Z,14.27
2023-12-07T16:30:23.566Z,13.85
2023-12-07T16:32:55.302Z,14.33
2023-12-07T16:35:30.302Z,13.63
2023-12-07T16:37:56.712Z,13.02
2023-12-07T16:40:26.869Z,13.10
2023-12-07T16:42:57.519Z,12.88
2023-12-07T16:45:27.384Z,13.20
2023-12-07T16:47:57.103Z,13.05
2023-12-07T16:50:23.534Z,12.55
2023-12-07T16:52:59.533Z,12.23
2023-12-07T16:55:26.471Z,11.65
2023-12-07T16:57:56.768Z,11.70
2023-12-07T17:00:26.865Z,12.30
2023-12-07T17:03:01.724Z,11.82
2023-12-07T17:05:28.228Z,11.35
2023-12-07T17:07:54.902Z,11.02
2023-12-07T17:10:28.836Z,11.30
2023-12-07T17:12:55.318Z,11.15
2023-12-07T17:15:22.079Z,11.10
2023-12-07T17:17:52.939Z,11.85
2023-12-07T17:20:19.725Z,10.77
2023-12-07T17:22:52.161Z,10.53
2023-12-07T17:25:20.283Z,10.80
2023-12-07T17:27:56.650Z,9.98
2023-12-07T17:30:24.688Z,10.30
2023-12-07T17:32:57.415Z,10.60
2023-12-07T17:35:23.987Z,11.47
2023-12-07T17:37:50.432Z,10.00
2023-12-07T17:40:21.096Z,9.88
2023-12-07T17:42:47.606Z,9.50
2023-12-07T17:45:14.244Z,9.25
2023-12-07T17:47:50.140Z,8.80
2023-12-07T17:50:16.912Z,8.85
2023-12-07T17:52:52.624Z,8.55
2023-12-07T17:55:19.052Z,9.10
2023-12-07T17:57:48.349Z,8.63
2023-12-07T18:00:18.046Z,8.87
2023-12-07T18:02:51.944Z,9.15
2023-12-07T18:05:21.568Z,9.20
2023-12-07T18:07:50.732Z,8.15
2023-12-07T18:10:17.608Z,8.10
2023-12-07T18:12:47.652Z,8.17
2023-12-07T18:15:20.046Z,7.80
2023-12-07T18:17:50.456Z,8.43
2023-12-07T18:20:29.304Z,8.68
2023-12-07T18:23:07.132Z,8.13
2023-12-07T18:25:33.660Z,7.87
2023-12-07T18:30:45.111Z,8.10
2023-12-07T18:33:14.923Z,7.55
2023-12-07T18:35:43.591Z,7.05
2023-12-07T18:38:15.525Z,6.87
2023-12-07T18:40:43.671Z,7.05
2023-12-07T18:43:14.927Z,7.05
2023-12-07T18:45:42.516Z,6.95
2023-12-07T18:48:15.504Z,6.40
2023-12-07T18:50:44.972Z,6.73
2023-12-07T18:53:19.009Z,6.85
2023-12-07T18:55:48.219Z,6.32
2023-12-07T18:58:20.805Z,6.50
2023-12-07T19:00:50.429Z,6.40
2023-12-07T19:03:19.715Z,5.30
2023-12-07T19:05:46.364Z,6.38
2023-12-07T19:08:13.307Z,5.72
2023-12-07T19:10:53.726Z,5.25
2023-12-07T19:13:20.253Z,5.82
2023-12-07T19:15:51.150Z,5.77
2023-12-07T19:18:18.558Z,5.65
2023-12-07T19:20:45.281Z,5.55
2023-12-07T19:23:15.000Z,5.10
2023-12-07T19:25:41.521Z,5.57
2023-12-07T19:28:08.057Z,5.37
2023-12-07T19:30:39.576Z,4.93
2023-12-07T19:33:06.168Z,5.43
2023-12-07T19:35:32.987Z,5.20
2023-12-07T19:38:03.764Z,5.80
2023-12-07T19:40:30.409Z,5.83
2023-12-07T19:43:04.625Z,5.20
2023-12-07T19:45:35.634Z,5.28
2023-12-07T19:48:03.123Z,5.60
2023-12-07T19:50:35.866Z,5.38
2023-12-07T19:53:06.929Z,5.20
2023-12-07T19:55:33.595Z,5.13
2023-12-07T19:58:07.678Z,5.22
2023-12-07T20:00:42.185Z,4.90
2023-12-07T20:03:16.547Z,5.18
2023-12-07T20:05:43.565Z,4.43
2023-12-07T20:08:10.431Z,5.38
2023-12-07T20:10:46.140Z,5.45
2023-12-07T20:13:12.717Z,5.03
2023-12-07T20:15:48.975Z,5.60
2023-12-07T20:18:15.986Z,4.17
2023-12-07T20:20:45.878Z,4.95
2023-12-07T20:23:12.493Z,5.22
2023-12-07T20:25:38.915Z,5.05
2023-12-07T20:28:06.886Z,4.80
2023-12-07T20:30:36.066Z,5.30
2023-12-07T20:33:02.551Z,4.60
2023-12-07T20:35:31.839Z,4.95
2023-12-07T20:38:01.216Z,4.97
2023-12-07T20:40:27.666Z,4.05
2023-12-07T20:42:56.652Z,4.47
2023-12-07T20:45:26.261Z,4.80
2023-12-07T20:47:55.463Z,4.70
2023-12-07T20:50:27.031Z,4.60
2023-12-07T20:52:56.619Z,3.45
2023-12-07T20:55:23.480Z,3.97
2023-12-07T20:57:52.399Z,4.75
2023-12-07T21:00:19.275Z,4.55
2023-12-07T21:02:48.668Z,4.43
2023-12-07T21:05:19.414Z,4.03
2023-12-07T21:07:59.074Z,4.67
2023-12-07T21:10:26.342Z,4.68
2023-12-07T21:12:58.601Z,4.88
2023-12-07T21:15:25.999Z,4.53
2023-12-07T21:18:01.741Z,4.93
2023-12-07T21:20:28.626Z,4.90
2023-12-07T21:23:04.316Z,4.40
2023-12-07T21:25:30.761Z,4.05
2023-12-07T21:28:07.020Z,4.78
2023-12-07T21:30:33.647Z,5.65
2023-12-07T21:33:03.591Z,5.57
2023-12-07T21:35:30.269Z,6.75
2023-12-07T21:37:57.009Z,6.97
2023-12-07T21:40:23.419Z,7.20
2023-12-07T21:42:50.154Z,7.03
2023-12-07T21:45:20.548Z,7.07
2023-12-07T21:47:57.209Z,6.93
2023-12-07T21:50:23.771Z,6.22
2023-12-07T21:53:04.685Z,5.90
2023-12-07T21:55:39.333Z,6.03
2023-12-07T21:58:05.787Z,5.03
2023-12-07T22:00:35.352Z,5.43
2023-12-07T22:03:05.267Z,5.40
2023-12-07T22:05:32.233Z,5.07
2023-12-07T22:08:10.350Z,4.95
2023-12-07T22:10:39.253Z,4.97
2023-12-07T22:13:05.784Z,4.55
2023-12-07T22:15:35.993Z,4.55
2023-12-07T22:18:12.852Z,5.32
2023-12-07T22:20:39.423Z,4.90
2023-12-07T22:23:09.380Z,6.20
2023-12-07T22:25:38.590Z,4.88
2023-12-07T22:28:05.037Z,5.30
2023-12-07T22:30:34.458Z,5.55
2023-12-07T22:33:01.016Z,5.70
2023-12-07T22:35:36.234Z,5.00
2023-12-07T22:38:05.931Z,5.93
2023-12-07T22:43:17.080Z,5.28
2023-12-07T22:45:46.217Z,5.00
2023-12-07T22:48:13.436Z,5.60
2023-12-07T22:50:42.718Z,5.15
2023-12-07T22:53:12.118Z,5.20
2023-12-07T22:55:40.775Z,5.15
2023-12-07T22:58:07.564Z,4.95
2023-12-07T23:00:37.030Z,5.43
2023-12-07T23:03:06.028Z,5.22
2023-12-07T23:05:32.802Z,5.30
2023-12-07T23:08:00.078Z,5.78
2023-12-07T23:10:26.820Z,6.28
2023-12-07T23:12:57.024Z,6.80
2023-12-07T23:15:23.462Z,5.00
2023-12-07T23:17:50.058Z,5.97
2023-12-07T23:20:21.479Z,6.50
2023-12-07T23:22:51.754Z,5.85
2023-12-07T23:25:22.217Z,5.23
2023-12-07T23:27:51.640Z,6.43
2023-12-07T23:30:21.914Z,6.25
2023-12-07T23:32:51.837Z,5.40
2023-12-07T23:35:18.743Z,6.10
2023-12-07T23:37:46.252Z,5.77
2023-12-07T23:40:16.656Z,7.13
2023-12-07T23:42:43.087Z,6.85
2023-12-07T23:45:13.247Z,6.22
2023-12-07T23:47:39.826Z,6.60
2023-12-07T23:50:06.720Z,7.10
2023-12-07T23:52:36.271Z,7.43
2023-12-07T23:55:06.373Z,6.90
2023-12-07T23:57:38.408Z,7.22
